Time;durP1;ratioP1;P1;durP2;ratioP2;P2;SDS_P1;SDS_P2;PMS_P1;PMS_P2;Temp;Humidity;BMP_temperature;BMP_pressure;BME280_temperature;BME280_humidity;BME280_pressure;Samples;Min_cycle;Max_cycle;Signal;HPM_P1;HPM_P2
2023/05/28 00:02:20;;;;;;;11.6;7.4;;;;;;;13.9;80.49902;938.7073;;;;
2023/05/28 00:04:58;;;;;;;11.7;7.4;;;;;;;13.94;80.19531;938.6848;;;;
2023/05/28 00:07:36;;;;;;;12.1;7.5;;;;;;;13.91;80.08691;938.6808;;;;
2023/05/28 00:10:14;;;;;;;10.6;7.5;;;;;;;13.87;79.72168;938.6633;;;;
2023/05/28 00:12:51;;;;;;;13.4;8;;;;;;;13.81;80.54004;938.6552;;;;
2023/05/28 00:15:29;;;;;;;10.7;7.2;;;;;;;13.79;80.31641;938.6256;;;;
2023/05/28 00:18:11;;;;;;;11.1;7.1;;;;;;;13.72;80.52344;938.577;;;;
2023/05/28 00:20:49;;;;;;;10.5;7;;;;;;;13.73;80.75488;938.5633;;;;
2023/05/28 00:23:27;;;;;;;11.8;7.1;;;;;;;13.74;80.86035;938.5585;;;;
2023/05/28 00:26:04;;;;;;;11.6;7.2;;;;;;;13.76;80.97852;938.4897;;;;
2023/05/28 00:28:42;;;;;;;10;7;;;;;;;13.63;80.82715;938.4492;;;;
2023/05/28 00:31:19;;;;;;;11.6;7.3;;;;;;;13.45;81.59961;938.4052;;;;
2023/05/28 00:33:58;;;;;;;11.4;8;;;;;;;13.3;82.2168;938.4138;;;;
2023/05/28 00:36:36;;;;;;;11.4;6.8;;;;;;;13.24;82.50293;938.4043;;;;
2023/05/28 00:39:14;;;;;;;10.3;7.3;;;;;;;13.19;82.67676;938.3904;;;;
2023/05/28 00:41:51;;;;;;;12.8;7.9;;;;;;;13.01;83.48047;938.3706;;;;
2023/05/28 00:44:37;;;;;;;11.2;7.7;;;;;;;12.88;84.24805;938.4066;;;;
2023/05/28 00:47:15;;;;;;;12.5;7;;;;;;;12.8;84.70313;938.3719;;;;
2023/05/28 00:49:54;;;;;;;11.8;7.6;;;;;;;12.9;84.19434;938.3467;;;;
2023/05/28 00:52:32;;;;;;;14.1;7.8;;;;;;;12.77;84.87012;938.3223;;;;
2023/05/28 00:55:09;;;;;;;11.8;7.5;;;;;;;12.54;86.00586;938.2977;;;;
2023/05/28 00:57:53;;;;;;;12.3;7.9;;;;;;;12.72;85.58203;938.2654;;;;
2023/05/28 01:00:30;;;;;;;12;7.1;;;;;;;12.82;84.91309;938.2172;;;;
2023/05/28 01:03:09;;;;;;;13.9;7.6;;;;;;;12.91;84.4834;938.2803;;;;
2023/05/28 01:05:47;;;;;;;10.2;7;;;;;;;13.01;84.2041;938.2692;;;;
2023/05/28 01:08:24;;;;;;;11.1;7.2;;;;;;;12.97;83.88672;938.2404;;;;
2023/05/28 01:11:02;;;;;;;10.4;7.4;;;;;;;13.04;83.51074;938.1903;;;;
2023/05/28 01:13:40;;;;;;;10.1;7.3;;;;;;;13.03;83.40527;938.1616;;;;
2023/05/28 01:16:18;;;;;;;9.8;7;;;;;;;12.97;83.49512;938.1924;;;;
2023/05/28 01:18:56;;;;;;;9.8;7.2;;;;;;;12.99;83.27051;938.1293;;;;
2023/05/28 01:21:22;;;;;;;12.1;7.1;;;;;;;12.91;83.49609;938.1141;;;;
2023/05/28 01:24:00;;;;;;;11;7.2;;;;;;;12.88;83.86914;938.039;;;;
2023/05/28 01:26:38;;;;;;;10.9;7.1;;;;;;;12.86;83.85254;938.0366;;;;
2023/05/28 01:29:16;;;;;;;9.7;6.6;;;;;;;12.84;84.25098;937.9942;;;;
2023/05/28 01:31:54;;;;;;;10.1;7.2;;;;;;;12.78;84.57129;937.9675;;;;
2023/05/28 01:34:26;;;;;;;9.7;7;;;;;;;12.79;84.08203;937.9644;;;;
2023/05/28 01:36:52;;;;;;;12.9;7.6;;;;;;;12.76;85.03906;937.9077;;;;
2023/05/28 01:39:42;;;;;;;9.8;7.2;;;;;;;12.82;84.52344;937.9439;;;;
2023/05/28 01:42:19;;;;;;;9.6;7.1;;;;;;;12.8;84.62305;937.9116;;;;
2023/05/28 01:44:53;;;;;;;13.4;7.4;;;;;;;12.81;84.22266;937.9308;;;;
2023/05/28 01:47:21;;;;;;;9.5;6.5;;;;;;;12.79;84.55273;937.8773;;;;
2023/05/28 01:49:58;;;;;;;11.2;6.7;;;;;;;12.75;84.49805;937.8613;;;;
2023/05/28 01:52:36;;;;;;;10.7;6.9;;;;;;;12.65;85.04004;937.8908;;;;
2023/05/28 01:55:13;;;;;;;9.1;7;;;;;;;12.75;84.79785;937.7941;;;;
2023/05/28 01:57:38;;;;;;;11.2;6.8;;;;;;;12.83;84.04297;937.8208;;;;
2023/05/28 02:00:03;;;;;;;10.4;6.6;;;;;;;12.8;84.51953;937.7981;;;;
2023/05/28 02:02:35;;;;;;;9.3;6.7;;;;;;;12.81;84.13086;937.7566;;;;
2023/05/28 02:05:00;;;;;;;9.5;6.8;;;;;;;12.8;84.31348;937.779;;;;
2023/05/28 02:07:29;;;;;;;11.5;7;;;;;;;12.82;83.94922;937.8416;;;;
2023/05/28 02:09:54;;;;;;;11.3;6.9;;;;;;;12.83;83.92773;937.7648;;;;
2023/05/28 02:12:20;;;;;;;10.8;6.8;;;;;;;12.76;84.21387;937.8117;;;;
2023/05/28 02:14:45;;;;;;;11.1;7.3;;;;;;;12.67;84.62109;937.8412;;;;
2023/05/28 02:17:14;;;;;;;11.9;7;;;;;;;12.66;85.17969;937.8181;;;;
2023/05/28 02:19:39;;;;;;;10;7.1;;;;;;;12.69;84.86621;937.7894;;;;
2023/05/28 02:22:11;;;;;;;10.4;7.1;;;;;;;12.78;84.89355;937.7686;;;;
2023/05/28 02:24:34;;;;;;;10.8;6.9;;;;;;;12.56;86.0459;937.7578;;;;
2023/05/28 02:27:03;;;;;;;11;7.1;;;;;;;12.51;86.67578;937.7227;;;;
2023/05/28 02:29:26;;;;;;;11.9;7.5;;;;;;;12.32;86.18066;937.7508;;;;
2023/05/28 02:31:55;;;;;;;13.3;7.6;;;;;;;12.44;85.17383;937.7656;;;;
2023/05/28 02:34:20;;;;;;;11.7;7.3;;;;;;;12.35;85.99121;937.7333;;;;
2023/05/28 02:36:49;;;;;;;9.6;7.3;;;;;;;12.5;85.87207;937.7713;;;;
2023/05/28 02:39:17;;;;;;;10;7.2;;;;;;;12.62;85.84961;937.7406;;;;
2023/05/28 02:41:43;;;;;;;10.2;7;;;;;;;12.53;85.49902;937.6867;;;;
2023/05/28 02:44:13;;;;;;;12.8;7.6;;;;;;;12.37;86.43066;937.7645;;;;
2023/05/28 02:46:38;;;;;;;10.2;7.4;;;;;;;12.37;86.56836;937.7605;;;;
2023/05/28 02:49:06;;;;;;;10.2;6.9;;;;;;;12.21;87.17969;937.7247;;;;
2023/05/28 02:51:30;;;;;;;10.1;7;;;;;;;12.33;87.34082;937.7173;;;;
2023/05/28 02:53:59;;;;;;;9;6.9;;;;;;;12.39;86.91699;937.743;;;;
2023/05/28 02:56:29;;;;;;;8.9;7;;;;;;;12.51;86.75781;937.7553;;;;
2023/05/28 02:59:01;;;;;;;11.2;7;;;;;;;12.58;86.37012;937.7034;;;;
2023/05/28 03:01:26;;;;;;;9.6;6.9;;;;;;;12.59;86.2002;937.7275;;;;
2023/05/28 03:03:55;;;;;;;10.4;6.9;;;;;;;12.59;86.09668;937.7458;;;;
2023/05/28 03:06:21;;;;;;;9.6;7.2;;;;;;;12.61;86.02051;937.7531;;;;
2023/05/28 03:08:47;;;;;;;13.6;7.3;;;;;;;12.61;85.81348;937.7458;;;;
2023/05/28 03:11:12;;;;;;;10.6;6.9;;;;;;;12.66;86.39746;937.7894;;;;
2023/05/28 03:13:38;;;;;;;9.1;7.1;;;;;;;12.79;86.26465;937.8189;;;;
2023/05/28 03:16:03;;;;;;;11.6;7.2;;;;;;;12.89;85.90527;937.7689;;;;
2023/05/28 03:18:31;;;;;;;10.4;7.4;;;;;;;12.71;87.31348;937.8069;;;;
2023/05/28 03:20:56;;;;;;;10.3;7;;;;;;;12.59;88.11621;937.8513;;;;
2023/05/28 03:23:24;;;;;;;9.9;7;;;;;;;12.75;86.67773;937.87;;;;
2023/05/28 03:25:49;;;;;;;9.4;7.2;;;;;;;12.78;87.01855;937.9387;;;;
2023/05/28 03:28:15;;;;;;;10.7;7.6;;;;;;;12.91;86.59766;937.8775;;;;
2023/05/28 03:30:40;;;;;;;10.6;7.6;;;;;;;12.97;85.9541;937.9175;;;;
2023/05/28 03:33:09;;;;;;;10.5;7.2;;;;;;;13;86.09863;937.9255;;;;
2023/05/28 03:35:34;;;;;;;8.7;6.8;;;;;;;12.97;86.45898;937.8408;;;;
2023/05/28 03:38:02;;;;;;;12;7.8;;;;;;;13.13;85.85938;937.7802;;;;
2023/05/28 03:40:26;;;;;;;10;7.1;;;;;;;13.11;85.99219;937.8329;;;;
2023/05/28 03:42:56;;;;;;;8.6;7.1;;;;;;;13.02;86.27246;937.8427;;;;
2023/05/28 03:45:21;;;;;;;11.5;7.3;;;;;;;13.05;86.50781;937.8858;;;;
2023/05/28 03:47:49;;;;;;;9.8;7;;;;;;;12.99;87.3125;937.8383;;;;
2023/05/28 03:50:19;;;;;;;8.4;7;;;;;;;13.09;86.79199;937.7642;;;;
2023/05/28 03:52:44;;;;;;;9.3;6.6;;;;;;;12.88;87.22168;937.8512;;;;
2023/05/28 03:55:11;;;;;;;11.5;7.5;;;;;;;12.86;88.14551;937.8136;;;;
2023/05/28 03:57:37;;;;;;;11.6;7.1;;;;;;;12.86;88.19336;937.816;;;;
2023/05/28 04:00:06;;;;;;;11.4;7.3;;;;;;;12.86;87.32129;937.8695;;;;
2023/05/28 04:02:43;;;;;;;10.3;7.6;;;;;;;12.87;86.89648;937.8719;;;;
2023/05/28 04:05:08;;;;;;;10.8;7.5;;;;;;;12.74;88.3877;937.886;;;;
2023/05/28 04:07:38;;;;;;;11;7.3;;;;;;;12.75;88.3877;937.8644;;;;
2023/05/28 04:10:03;;;;;;;11.3;7.9;;;;;;;12.65;89.7793;937.8261;;;;
2023/05/28 04:12:28;;;;;;;11.8;7.7;;;;;;;12.67;89.46191;937.8756;;;;
2023/05/28 04:14:56;;;;;;;10.5;7.6;;;;;;;12.69;88.88184;937.8669;;;;
2023/05/28 04:17:21;;;;;;;12.4;7.8;;;;;;;12.71;88.56445;937.8708;;;;
2023/05/28 04:19:51;;;;;;;8.8;7;;;;;;;12.87;87.96582;937.9687;;;;
2023/05/28 04:22:14;;;;;;;9.5;7.2;;;;;;;12.92;87.67871;937.9639;;;;
2023/05/28 04:24:42;;;;;;;10.7;7.3;;;;;;;13.09;86.25293;937.8953;;;;
2023/05/28 04:27:14;;;;;;;10.8;7.1;;;;;;;12.98;86.78223;937.9734;;;;
2023/05/28 04:29:40;;;;;;;11.3;7.3;;;;;;;12.98;86.46094;938.0237;;;;
2023/05/28 04:32:08;;;;;;;12.4;7.5;;;;;;;12.9;86.77734;938.0422;;;;
2023/05/28 04:34:34;;;;;;;10.4;7.6;;;;;;;12.85;87.76758;938.0622;;;;
2023/05/28 04:37:04;;;;;;;10.9;8;;;;;;;12.75;88.46973;938.0251;;;;
2023/05/28 04:39:29;;;;;;;13.5;8.4;;;;;;;12.77;88.27832;938.0427;;;;
2023/05/28 04:41:57;;;;;;;10;8.1;;;;;;;12.91;87.98633;938.0374;;;;
2023/05/28 04:44:28;;;;;;;12.7;8.8;;;;;;;13.03;87.68652;938.1111;;;;
2023/05/28 04:46:52;;;;;;;11.1;7.8;;;;;;;13.19;86.91406;938.125;;;;
2023/05/28 04:49:20;;;;;;;9.9;7.2;;;;;;;13.17;85.93555;938.1839;;;;
2023/05/28 04:51:45;;;;;;;10;7.6;;;;;;;13.28;86.03711;938.1636;;;;
2023/05/28 04:54:15;;;;;;;11.1;7.9;;;;;;;13.3;85.28223;938.2452;;;;
2023/05/28 04:56:40;;;;;;;11.8;7.8;;;;;;;13.32;85.78223;938.2267;;;;
2023/05/28 04:59:09;;;;;;;9.8;7.5;;;;;;;13.22;86.56641;938.2148;;;;
2023/05/28 05:01:35;;;;;;;11.2;7.7;;;;;;;13.29;85.91309;938.2099;;;;
2023/05/28 05:03:59;;;;;;;12.1;7.8;;;;;;;13.31;85.52734;938.1827;;;;
2023/05/28 05:06:26;;;;;;;11.3;8.1;;;;;;;13.37;85.5498;938.1722;;;;
2023/05/28 05:08:51;;;;;;;10.9;7.7;;;;;;;13.46;85.21094;938.2115;;;;
2023/05/28 05:11:20;;;;;;;11.5;8.1;;;;;;;13.41;85.55859;938.1097;;;;
2023/05/28 05:13:44;;;;;;;10.1;7.7;;;;;;;13.38;86.10352;938.2618;;;;
2023/05/28 05:16:13;;;;;;;12.9;8;;;;;;;13.38;86.12793;938.2018;;;;
2023/05/28 05:18:42;;;;;;;10.1;7.7;;;;;;;13.47;86.41992;938.2476;;;;
2023/05/28 05:21:09;;;;;;;11.7;8;;;;;;;13.66;86.17188;938.2442;;;;
2023/05/28 05:23:32;;;;;;;9.5;7.4;;;;;;;13.79;85.27637;938.2695;;;;
2023/05/28 05:26:00;;;;;;;8.4;7.3;;;;;;;13.85;84.31055;938.1992;;;;
2023/05/28 05:28:24;;;;;;;12.6;8.4;;;;;;;13.92;84.27734;938.2997;;;;
2023/05/28 05:30:51;;;;;;;9.9;7.8;;;;;;;13.95;84.96289;938.2781;;;;
2023/05/28 05:33:16;;;;;;;11.3;7.7;;;;;;;13.89;85.06445;938.3239;;;;
2023/05/28 05:35:45;;;;;;;9.7;7.1;;;;;;;14.11;83.48438;938.3394;;;;
2023/05/28 05:38:10;;;;;;;10.4;7.4;;;;;;;14.22;82.83984;938.308;;;;
2023/05/28 05:40:37;;;;;;;11;7.6;;;;;;;14.12;83.08496;938.3233;;;;
2023/05/28 05:43:02;;;;;;;12.9;7.6;;;;;;;14.09;83.28711;938.3155;;;;
2023/05/28 05:45:29;;;;;;;10.3;7.3;;;;;;;14.18;83.19727;938.3151;;;;
2023/05/28 05:47:54;;;;;;;10.2;6.9;;;;;;;14.31;82.33691;938.2827;;;;
2023/05/28 05:50:25;;;;;;;10.2;7.2;;;;;;;14.41;82.7832;938.3127;;;;
2023/05/28 05:52:50;;;;;;;10;6.8;;;;;;;14.56;80.16016;938.3068;;;;
2023/05/28 05:55:18;;;;;;;9.7;6.9;;;;;;;14.71;81.05273;938.2989;;;;
2023/05/28 05:57:43;;;;;;;8.8;6.2;;;;;;;14.89;80.58887;938.3028;;;;
2023/05/28 06:00:15;;;;;;;11.9;6.1;;;;;;;14.98;78.61133;938.3239;;;;
2023/05/28 06:02:41;;;;;;;10.2;6.4;;;;;;;15.09;77.24707;938.2792;;;;
2023/05/28 06:05:16;;;;;;;7.8;6;;;;;;;15.12;76.32813;938.2845;;;;
2023/05/28 06:07:47;;;;;;;9.2;6.3;;;;;;;15.02;77.28027;938.2838;;;;
2023/05/28 06:10:23;;;;;;;8.6;5.8;;;;;;;15.05;74.81738;938.2731;;;;
2023/05/28 06:12:55;;;;;;;9;6.1;;;;;;;15.06;75.61523;938.2891;;;;
2023/05/28 06:15:21;;;;;;;10.2;6.3;;;;;;;15.02;75.06348;938.2966;;;;
2023/05/28 06:17:45;;;;;;;9;6.5;;;;;;;15.04;75.33398;938.2892;;;;
2023/05/28 06:20:19;;;;;;;13.2;6.7;;;;;;;15.17;77.60547;938.2176;;;;
2023/05/28 06:22:43;;;;;;;11.3;6.6;;;;;;;15.17;77.72266;938.2809;;;;
2023/05/28 06:25:14;;;;;;;10.4;6.5;;;;;;;15.18;77.63184;938.2824;;;;
2023/05/28 06:27:39;;;;;;;8.9;6.5;;;;;;;15.29;78.06543;938.2739;;;;
2023/05/28 06:30:06;;;;;;;9.5;6.4;;;;;;;15.49;77.24707;938.3317;;;;
2023/05/28 06:32:31;;;;;;;10.8;6.8;;;;;;;15.3;76.82031;938.2167;;;;
2023/05/28 06:34:58;;;;;;;9.4;6.4;;;;;;;15.32;78.42969;938.2647;;;;
2023/05/28 06:37:23;;;;;;;9.3;6.7;;;;;;;15.49;77.14355;938.2939;;;;
2023/05/28 06:39:48;;;;;;;9.9;6.3;;;;;;;15.62;78.65625;938.3054;;;;
2023/05/28 06:42:17;;;;;;;11.1;6.6;;;;;;;15.7;77.27441;938.2684;;;;
2023/05/28 06:44:42;;;;;;;9.2;6.7;;;;;;;15.68;78.7832;938.3136;;;;
2023/05/28 06:47:11;;;;;;;9.3;6.7;;;;;;;15.6;76.50391;938.2515;;;;
2023/05/28 06:49:37;;;;;;;10.5;6.5;;;;;;;15.64;75.66895;938.2561;;;;
2023/05/28 06:52:05;;;;;;;10.1;6;;;;;;;15.85;75.13867;938.2092;;;;
2023/05/28 06:54:36;;;;;;;9.5;6.6;;;;;;;16.05;75.79883;938.2371;;;;
2023/05/28 06:57:08;;;;;;;10.1;6.3;;;;;;;16;73.68457;938.2036;;;;
2023/05/28 06:59:36;;;;;;;9.3;6.1;;;;;;;15.76;73.53809;938.2878;;;;
2023/05/28 07:02:01;;;;;;;7.4;5.8;;;;;;;16.12;73.4043;938.2619;;;;
2023/05/28 07:04:27;;;;;;;9.7;6.1;;;;;;;16.26;72.76758;938.2364;;;;
2023/05/28 07:06:55;;;;;;;9.8;6.3;;;;;;;16.31;71.78125;938.1867;;;;
2023/05/28 07:09:19;;;;;;;10.9;6.6;;;;;;;16.42;72.67871;938.2089;;;;
2023/05/28 07:11:46;;;;;;;9.3;5.9;;;;;;;16.61;72.10742;938.1758;;;;
2023/05/28 07:14:11;;;;;;;9.6;6.3;;;;;;;16.71;70.79199;938.1348;;;;
2023/05/28 07:16:36;;;;;;;13;6.3;;;;;;;16.79;70.85156;938.1996;;;;
2023/05/28 07:19:07;;;;;;;9.2;6.1;;;;;;;16.7;71.3125;938.192;;;;
2023/05/28 07:21:37;;;;;;;9.1;6.4;;;;;;;16.85;71.95117;938.2023;;;;
2023/05/28 07:24:06;;;;;;;9.6;5.8;;;;;;;16.82;70.59082;938.1953;;;;
2023/05/28 07:26:30;;;;;;;10.2;6.6;;;;;;;16.55;71.00879;938.0963;;;;
2023/05/28 07:28:59;;;;;;;9;6.5;;;;;;;16.61;70.91504;938.1597;;;;
2023/05/28 07:31:24;;;;;;;9.6;6.8;;;;;;;16.66;73.15918;938.1418;;;;
2023/05/28 07:33:50;;;;;;;10.4;5.9;;;;;;;17.19;70.25488;938.1111;;;;
2023/05/28 07:36:15;;;;;;;9.7;6.1;;;;;;;17.47;67.93359;938.1385;;;;
2023/05/28 07:38:44;;;;;;;7.3;5.7;;;;;;;17.29;67.32422;938.0954;;;;
2023/05/28 07:41:13;;;;;;;10.2;6.1;;;;;;;17.76;66.19141;938.0839;;;;
2023/05/28 07:43:38;;;;;;;8;6.1;;;;;;;19.45;63.43848;938.0734;;;;
2023/05/28 07:46:06;;;;;;;9.9;5.7;;;;;;;21.42;56.58105;938.0178;;;;
2023/05/28 07:48:31;;;;;;;6.7;4.6;;;;;;;23;50.69824;938.003;;;;
2023/05/28 07:50:58;;;;;;;8.4;4.9;;;;;;;22.14;51.5498;938.0247;;;;
2023/05/28 07:53:23;;;;;;;8;5.2;;;;;;;20.75;56.82324;938.0181;;;;
2023/05/28 07:55:48;;;;;;;7.8;5.4;;;;;;;21.13;54.00586;937.973;;;;
2023/05/28 07:58:14;;;;;;;8.5;5.6;;;;;;;20.28;56.24902;937.9867;;;;
2023/05/28 08:00:44;;;;;;;9.9;5.4;;;;;;;19.84;58.14063;938.0055;;;;
2023/05/28 08:03:14;;;;;;;10.2;5.3;;;;;;;19.93;59.51855;937.906;;;;
2023/05/28 08:05:43;;;;;;;8.9;5.5;;;;;;;20.02;58.17578;937.94;;;;
2023/05/28 08:08:08;;;;;;;7;5;;;;;;;19.67;59.80859;937.9055;;;;
2023/05/28 08:10:36;;;;;;;7.1;5.1;;;;;;;19.06;61.96191;937.8395;;;;
2023/05/28 08:13:01;;;;;;;9.1;5.6;;;;;;;19.38;59.80469;937.8529;;;;
2023/05/28 08:15:34;;;;;;;8.8;5.5;;;;;;;19.08;59.29785;937.8035;;;;
2023/05/28 08:18:02;;;;;;;10.1;5.2;;;;;;;19.13;60.93652;937.8102;;;;
2023/05/28 08:20:27;;;;;;;7.6;5.4;;;;;;;18.74;62.90527;937.8577;;;;
2023/05/28 08:22:55;;;;;;;8.7;5.6;;;;;;;19.34;62.03711;937.7617;;;;
2023/05/28 08:25:20;;;;;;;8.6;5.6;;;;;;;19.44;61.27051;937.745;;;;
2023/05/28 08:27:46;;;;;;;9.3;5.5;;;;;;;19.79;60.24512;937.697;;;;
2023/05/28 08:30:15;;;;;;;9;5.7;;;;;;;20.12;58.02734;937.6601;;;;
2023/05/28 08:32:42;;;;;;;9.9;5.7;;;;;;;19.8;59.08203;937.661;;;;
2023/05/28 08:35:07;;;;;;;7.3;5;;;;;;;19.96;58.08691;937.6523;;;;
2023/05/28 08:37:53;;;;;;;7.8;5.1;;;;;;;20.24;56.875;937.611;;;;
2023/05/28 08:40:17;;;;;;;8.8;5.4;;;;;;;20.96;58.49805;937.5547;;;;
2023/05/28 08:42:42;;;;;;;7.3;4.8;;;;;;;22.09;54.04199;937.5876;;;;
2023/05/28 08:45:14;;;;;;;6.7;4.6;;;;;;;23.64;48.90137;937.5128;;;;
2023/05/28 08:47:41;;;;;;;7.8;4.9;;;;;;;24.77;46.03027;937.4649;;;;
2023/05/28 08:50:06;;;;;;;8.6;5.2;;;;;;;24.88;44.67188;937.4367;;;;
2023/05/28 08:52:31;;;;;;;6.9;4.9;;;;;;;25.1;45.35547;937.4765;;;;
2023/05/28 08:54:56;;;;;;;10;5.2;;;;;;;24.77;47.64551;937.4537;;;;
2023/05/28 08:57:21;;;;;;;7.1;4.5;;;;;;;24.75;47.99707;937.4182;;;;
2023/05/28 08:59:47;;;;;;;10.8;5.3;;;;;;;25.12;46.41992;937.4019;;;;
2023/05/28 09:02:12;;;;;;;8.2;4.9;;;;;;;26.46;45.12598;937.321;;;;
2023/05/28 09:04:41;;;;;;;8.1;5;;;;;;;27.1;43.47266;937.285;;;;
2023/05/28 09:07:05;;;;;;;8.1;4.5;;;;;;;26.59;40.04785;937.3058;;;;
2023/05/28 09:09:34;;;;;;;5.8;4.1;;;;;;;25.9;45.3291;937.2644;;;;
2023/05/28 09:11:59;;;;;;;6.2;4.2;;;;;;;25.95;46.02051;937.2006;;;;
2023/05/28 09:14:28;;;;;;;8.1;4.2;;;;;;;26.09;46.39063;937.1387;;;;
2023/05/28 09:16:54;;;;;;;7.1;4.7;;;;;;;26.49;44.50195;937.1103;;;;
2023/05/28 09:19:19;;;;;;;5.8;4;;;;;;;28;40.2207;937.0489;;;;
2023/05/28 09:21:49;;;;;;;6.1;3.9;;;;;;;27.91;41.16309;937.0592;;;;
2023/05/28 09:24:14;;;;;;;6;3.6;;;;;;;27.2;42.35547;937.053;;;;
2023/05/28 09:26:39;;;;;;;10.1;4.2;;;;;;;28.08;40.19336;937.0285;;;;
2023/05/28 09:29:05;;;;;;;6.6;3.8;;;;;;;28.26;38.33105;937.0245;;;;
2023/05/28 09:31:32;;;;;;;7.6;4.1;;;;;;;28.73;38.43066;936.9937;;;;
2023/05/28 09:33:55;;;;;;;6.8;4;;;;;;;29.12;37.69043;936.9597;;;;
2023/05/28 09:36:23;;;;;;;6.7;4.1;;;;;;;29.16;38.43164;937.003;;;;
2023/05/28 09:38:48;;;;;;;7.4;4.5;;;;;;;27.91;40.12988;936.9944;;;;
2023/05/28 09:41:17;;;;;;;6.9;4.3;;;;;;;27.08;41.11035;937.0586;;;;
2023/05/28 09:43:46;;;;;;;6.8;4.4;;;;;;;25.25;44.89844;937.0299;;;;
2023/05/28 09:46:11;;;;;;;8.4;4.6;;;;;;;24.76;46.1582;936.9615;;;;
2023/05/28 09:48:39;;;;;;;11.8;6.3;;;;;;;24.35;46.97656;936.9895;;;;
2023/05/28 09:51:04;;;;;;;25.2;15.6;;;;;;;23.87;47.21973;937.0192;;;;
2023/05/28 09:53:33;;;;;;;64.2;33.3;;;;;;;22.97;50.16602;937.0449;;;;
2023/05/28 09:55:57;;;;;;;65.3;31.5;;;;;;;22.89;50.62695;936.976;;;;
2023/05/28 09:58:23;;;;;;;22.8;12.7;;;;;;;22.65;50.1416;937.0719;;;;
2023/05/28 10:00:49;;;;;;;92.7;57.9;;;;;;;22.29;52.29492;937.1037;;;;
2023/05/28 10:03:15;;;;;;;9;5.2;;;;;;;21.86;53.27637;937.0259;;;;
2023/05/28 10:05:39;;;;;;;50.5;30.7;;;;;;;21.52;54.74512;937.0204;;;;
2023/05/28 10:08:04;;;;;;;48.6;29.9;;;;;;;21.45;55.89551;937.0609;;;;
2023/05/28 10:10:35;;;;;;;18.4;9.8;;;;;;;21.49;56.8125;936.9883;;;;
2023/05/28 10:13:01;;;;;;;14.2;9.6;;;;;;;21.47;56.08496;937.0231;;;;
2023/05/28 10:15:27;;;;;;;8.6;5.6;;;;;;;21.42;56.03223;937.0438;;;;
2023/05/28 10:17:55;;;;;;;10.3;5.5;;;;;;;21.72;57.25195;937.0122;;;;
2023/05/28 10:20:19;;;;;;;8.9;5.2;;;;;;;21.47;57.51367;937.0067;;;;
2023/05/28 10:22:48;;;;;;;12;5.2;;;;;;;21.68;57.3418;936.9916;;;;
2023/05/28 10:25:20;;;;;;;10.5;5.5;;;;;;;22.04;56.41406;936.9324;;;;
2023/05/28 10:27:54;;;;;;;8.1;4.8;;;;;;;22.35;55.52832;936.9617;;;;
2023/05/28 10:30:19;;;;;;;8.4;5.5;;;;;;;22.27;53.92188;936.9276;;;;
2023/05/28 10:32:45;;;;;;;8.4;4.4;;;;;;;22.7;54.67871;936.8897;;;;
2023/05/28 10:35:20;;;;;;;8.8;5;;;;;;;23.46;53.54883;936.8647;;;;
2023/05/28 10:37:52;;;;;;;7.6;5.3;;;;;;;23.58;51.70508;936.8444;;;;
2023/05/28 10:40:24;;;;;;;8.9;5.1;;;;;;;23.93;51.21582;936.8078;;;;
2023/05/28 10:42:49;;;;;;;9;5.2;;;;;;;24.03;51.67578;936.7531;;;;
2023/05/28 10:45:19;;;;;;;7.3;4.5;;;;;;;23.64;54.41797;936.7341;;;;
2023/05/28 10:47:43;;;;;;;9.9;5.1;;;;;;;24.02;52.0166;936.7042;;;;
2023/05/28 10:50:16;;;;;;;6.8;4.8;;;;;;;24.22;51.08496;936.6678;;;;
2023/05/28 10:52:41;;;;;;;11.1;5.1;;;;;;;24.16;53.79883;936.6259;;;;
2023/05/28 10:55:06;;;;;;;11.2;5.9;;;;;;;24.22;51.28516;936.6174;;;;
2023/05/28 10:57:43;;;;;;;10;5.1;;;;;;;23.9;53.67285;936.5708;;;;
2023/05/28 11:00:13;;;;;;;8;5;;;;;;;23.75;53.11328;936.6358;;;;
2023/05/28 11:02:37;;;;;;;9.6;4.9;;;;;;;23.71;52.33203;936.635;;;;
2023/05/28 11:05:14;;;;;;;10.5;5.1;;;;;;;23.85;52.61914;936.5853;;;;
2023/05/28 11:07:47;;;;;;;11.1;5.2;;;;;;;23.75;51.56152;936.6136;;;;
2023/05/28 11:10:15;;;;;;;7.7;4.7;;;;;;;23.68;51.3291;936.5467;;;;
2023/05/28 11:12:49;;;;;;;8.5;4.5;;;;;;;23.42;53.78027;936.5131;;;;
2023/05/28 11:15:14;;;;;;;10.8;5.2;;;;;;;23.45;51.70215;936.5352;;;;
2023/05/28 11:17:45;;;;;;;10;5;;;;;;;23.64;53.31348;936.5225;;;;
2023/05/28 11:20:17;;;;;;;7.2;4.6;;;;;;;23.45;52.97168;936.4838;;;;
2023/05/28 11:22:42;;;;;;;8.2;4.8;;;;;;;23.13;54.4375;936.4662;;;;
2023/05/28 11:25:17;;;;;;;9.6;4.8;;;;;;;22.94;56.0127;936.4658;;;;
2023/05/28 11:27:44;;;;;;;9.5;5;;;;;;;22.89;55.62988;936.5097;;;;
2023/05/28 11:30:14;;;;;;;8.6;5;;;;;;;22.95;55.0498;936.4969;;;;
2023/05/28 11:32:39;;;;;;;7.4;4.7;;;;;;;22.98;54.80859;936.5433;;;;
2023/05/28 11:35:05;;;;;;;9.5;4.7;;;;;;;23.22;55.24805;936.6295;;;;
2023/05/28 11:37:32;;;;;;;8.5;4.9;;;;;;;23.11;55.29395;936.5887;;;;
2023/05/28 11:39:56;;;;;;;7.6;4.9;;;;;;;23.44;54.75781;936.491;;;;
2023/05/28 11:42:29;;;;;;;7.1;4.8;;;;;;;23.16;53.10156;936.5989;;;;
2023/05/28 11:44:54;;;;;;;8.7;4.5;;;;;;;23.1;53.94141;936.5963;;;;
2023/05/28 11:47:24;;;;;;;8.4;5.1;;;;;;;22.89;55.04297;936.6236;;;;
2023/05/28 11:49:49;;;;;;;9.7;4.7;;;;;;;22.8;56.03027;936.6785;;;;
2023/05/28 11:52:16;;;;;;;9.1;4.8;;;;;;;22.66;56.68164;936.7036;;;;
2023/05/28 11:54:42;;;;;;;9.6;5;;;;;;;22.57;57.87988;936.6361;;;;
2023/05/28 11:57:10;;;;;;;7.4;5;;;;;;;22.51;57.96387;936.6785;;;;
2023/05/28 11:59:35;;;;;;;9.9;5;;;;;;;22.34;56.66309;936.6873;;;;
2023/05/28 12:02:00;;;;;;;8.9;4.9;;;;;;;22.39;58.60742;936.7572;;;;
2023/05/28 12:04:25;;;;;;;7.2;5;;;;;;;22.25;59.4209;936.688;;;;
2023/05/28 12:06:53;;;;;;;8.6;5;;;;;;;22.45;57.91016;936.6724;;;;
2023/05/28 12:09:17;;;;;;;8.4;4.7;;;;;;;22.63;56.63086;936.6481;;;;
2023/05/28 12:11:46;;;;;;;10.2;5.1;;;;;;;22.86;56.08398;936.6562;;;;
2023/05/28 12:14:11;;;;;;;10.3;4.8;;;;;;;23.19;54.49316;936.7046;;;;
2023/05/28 12:16:39;;;;;;;9.6;4.6;;;;;;;23.05;52.50195;936.6075;;;;
2023/05/28 12:19:04;;;;;;;8.3;4.7;;;;;;;22.9;54.72754;936.6619;;;;
2023/05/28 12:21:31;;;;;;;7.5;4.5;;;;;;;23.26;53.11523;936.6713;;;;
2023/05/28 12:23:56;;;;;;;8.1;4.4;;;;;;;23.41;52.19141;936.6469;;;;
2023/05/28 12:26:21;;;;;;;8.4;4.7;;;;;;;23.38;52.95215;936.6514;;;;
2023/05/28 12:28:50;;;;;;;7.4;4.5;;;;;;;23.51;53.54395;936.5667;;;;
2023/05/28 12:31:16;;;;;;;8;4.2;;;;;;;23.51;53.90918;936.6379;;;;
2023/05/28 12:33:41;;;;;;;7.5;4.4;;;;;;;23.65;50.31445;936.6447;;;;
2023/05/28 12:36:09;;;;;;;8.7;4.3;;;;;;;23.29;52.80078;936.6863;;;;
2023/05/28 12:38:34;;;;;;;6.9;4.6;;;;;;;23.27;52.42188;936.7098;;;;
2023/05/28 12:41:00;;;;;;;7.4;4.4;;;;;;;22.94;53.13477;936.6468;;;;
2023/05/28 12:43:26;;;;;;;7.6;4;;;;;;;22.57;53.68848;936.5527;;;;
2023/05/28 12:45:51;;;;;;;7;4.2;;;;;;;22.56;53.95801;936.6309;;;;
2023/05/28 12:48:19;;;;;;;7.8;4.2;;;;;;;22.82;50.93555;936.6058;;;;
2023/05/28 12:50:45;;;;;;;7.7;4;;;;;;;23;49.86426;936.606;;;;
2023/05/28 12:53:14;;;;;;;6.5;4.4;;;;;;;23.24;49.5625;936.5399;;;;
2023/05/28 12:55:44;;;;;;;7.3;3.6;;;;;;;23.25;49.09277;936.5289;;;;
2023/05/28 12:58:09;;;;;;;7.7;3.9;;;;;;;23.47;50.22363;936.4677;;;;
2023/05/28 13:00:36;;;;;;;9;4.2;;;;;;;24.18;48.4668;936.4002;;;;
2023/05/28 13:03:02;;;;;;;6.3;3.8;;;;;;;24.61;45.1748;936.3635;;;;
2023/05/28 13:05:33;;;;;;;9.5;3.9;;;;;;;24.47;45.9043;936.324;;;;
2023/05/28 13:08:02;;;;;;;7.8;4.1;;;;;;;24.63;46.34473;936.4286;;;;
2023/05/28 13:10:26;;;;;;;7.7;4.1;;;;;;;24.63;47.31055;936.4031;;;;
2023/05/28 13:12:54;;;;;;;6.9;4.2;;;;;;;24.63;45.16699;936.3931;;;;
2023/05/28 13:15:19;;;;;;;8.1;4.2;;;;;;;24.69;44.21777;936.3597;;;;
2023/05/28 13:17:46;;;;;;;7;4.2;;;;;;;24.77;46.77344;936.3217;;;;
2023/05/28 13:20:11;;;;;;;7;3.6;;;;;;;24.78;43.66016;936.3046;;;;
2023/05/28 13:22:45;;;;;;;8;4;;;;;;;24.76;44.12988;936.2635;;;;
2023/05/28 13:25:20;;;;;;;6.9;4.2;;;;;;;24.89;45.35742;936.2844;;;;
2023/05/28 13:27:44;;;;;;;6.4;3.7;;;;;;;24.12;47.82324;936.2264;;;;
2023/05/28 13:30:09;;;;;;;7.7;4.3;;;;;;;24.13;44.31543;936.2789;;;;
2023/05/28 13:32:40;;;;;;;5.9;3.9;;;;;;;23.88;45.75;936.2266;;;;
2023/05/28 13:35:11;;;;;;;9.4;4.1;;;;;;;23.7;45.60156;936.2794;;;;
2023/05/28 13:37:39;;;;;;;7.4;4.2;;;;;;;23.75;44.42969;936.2015;;;;
2023/05/28 13:40:07;;;;;;;6.3;3.8;;;;;;;23.64;43.01953;936.2338;;;;
2023/05/28 13:42:30;;;;;;;7.5;4.4;;;;;;;23.52;45.18359;936.2419;;;;
2023/05/28 13:44:57;;;;;;;8.2;4;;;;;;;22.93;45.46387;936.1955;;;;
2023/05/28 13:47:22;;;;;;;6.9;4;;;;;;;23.08;45.67871;936.2269;;;;
2023/05/28 13:49:50;;;;;;;7.5;4.3;;;;;;;23.26;44.66309;936.2327;;;;
2023/05/28 13:52:14;;;;;;;6.2;4.1;;;;;;;23.21;44.97559;936.145;;;;
2023/05/28 13:54:44;;;;;;;5.3;3.9;;;;;;;23.03;44.55859;936.072;;;;
2023/05/28 13:57:09;;;;;;;8.5;3.9;;;;;;;22.74;44.82227;936.0864;;;;
2023/05/28 13:59:36;;;;;;;7.7;4.1;;;;;;;22.74;47.60449;936.2279;;;;
2023/05/28 14:02:01;;;;;;;8.3;4.3;;;;;;;22.38;49.36133;936.1534;;;;
2023/05/28 14:04:30;;;;;;;7.5;3.9;;;;;;;22.6;50.46484;936.1538;;;;
2023/05/28 14:06:55;;;;;;;8;4.5;;;;;;;22.83;51.01855;936.2022;;;;
2023/05/28 14:09:20;;;;;;;7.8;4.2;;;;;;;22.32;47.72363;936.2442;;;;
2023/05/28 14:11:50;;;;;;;6;4.4;;;;;;;21.86;52.31445;936.2762;;;;
2023/05/28 14:14:16;;;;;;;6.9;4.1;;;;;;;21.66;54.46875;936.3182;;;;
2023/05/28 14:16:40;;;;;;;8.8;4.4;;;;;;;21.43;56.62988;936.3738;;;;
2023/05/28 14:19:10;;;;;;;9.8;4.3;;;;;;;21.18;51.96484;936.3469;;;;
2023/05/28 14:21:36;;;;;;;9.1;4.3;;;;;;;21.39;55.20801;936.3063;;;;
2023/05/28 14:24:05;;;;;;;6.3;4.1;;;;;;;21.11;56.95117;936.342;;;;
2023/05/28 14:26:31;;;;;;;8.4;5;;;;;;;21.14;58.07813;936.3265;;;;
2023/05/28 14:28:58;;;;;;;8.1;4.5;;;;;;;21.14;59.22559;936.4025;;;;